Time;durP1;ratioP1;P1;durP2;ratioP2;P2;SDS_P1;SDS_P2;PMS_P1;PMS_P2;Temp;Humidity;BMP_temperature;BMP_pressure;BME280_temperature;BME280_humidity;BME280_pressure;Samples;Min_cycle;Max_cycle;Signal;HPM_P1;HPM_P2
2023/12/03 00:00:26;;;;;;;12.30;8.40;;;;;;;-147.86;100.00;46125.71;105642;1257;72938;-44
2023/12/03 00:02:53;;;;;;;12.90;8.10;;;;;;;-147.86;100.00;46126.49;105682;1257;65522;-45
2023/12/03 00:05:22;;;;;;;12.50;7.50;;;;;;;-147.86;100.00;46126.10;105663;1254;71765;-44
2023/12/03 00:07:51;;;;;;;11.10;8.40;;;;;;;-147.86;100.00;46124.54;105725;1256;61076;-44
2023/12/03 00:10:18;;;;;;;13.10;8.70;;;;;;;-147.86;100.00;46124.54;105727;1253;60723;-44
2023/12/03 00:12:48;;;;;;;13.30;8.80;;;;;;;-147.86;100.00;46124.54;105688;1259;73272;-44
2023/12/03 00:15:21;;;;;;;12.30;7.80;;;;;;;-147.86;100.00;46124.54;105735;1257;65405;-44
2023/12/03 00:17:52;;;;;;;18.60;8.30;;;;;;;-147.86;100.00;46125.32;105752;1254;72581;-44
2023/12/03 00:20:19;;;;;;;13.70;9.50;;;;;;;-147.86;100.00;46125.32;105731;1257;61854;-44
2023/12/03 00:22:57;;;;;;;12.90;9.00;;;;;;;-147.86;100.00;46123.36;105716;1254;60517;-44
2023/12/03 00:25:24;;;;;;;11.70;8.10;;;;;;;-147.86;100.00;46123.36;105662;1254;72816;-44
2023/12/03 00:27:58;;;;;;;14.00;9.00;;;;;;;-147.86;100.00;46124.54;105721;1257;65722;-44
2023/12/03 00:30:25;;;;;;;14.00;8.80;;;;;;;-147.86;100.00;46123.75;105716;1254;71960;-44
2023/12/03 00:32:52;;;;;;;17.80;9.40;;;;;;;-147.86;100.00;46124.93;105691;1257;61821;-44
2023/12/03 00:35:21;;;;;;;16.00;9.50;;;;;;;-147.86;100.00;46121.40;105690;1257;60287;-44
2023/12/03 00:37:50;;;;;;;15.80;10.00;;;;;;;-147.86;100.00;46122.57;105696;1257;73343;-45
2023/12/03 00:40:17;;;;;;;14.20;9.40;;;;;;;-147.86;100.00;46124.54;105669;1257;65636;-45
2023/12/03 00:42:44;;;;;;;16.70;10.00;;;;;;;-147.86;100.00;46124.14;105718;1254;72654;-44
2023/12/03 00:45:14;;;;;;;18.00;10.30;;;;;;;-147.86;100.00;46122.97;105672;1257;61942;-44
2023/12/03 00:47:41;;;;;;;16.10;10.40;;;;;;;-147.86;100.00;46124.93;105719;1253;60009;-44
2023/12/03 00:50:16;;;;;;;16.50;11.00;;;;;;;-147.86;100.00;46123.36;105707;1257;72931;-44
2023/12/03 00:52:45;;;;;;;18.70;11.10;;;;;;;-147.86;100.00;46123.75;105706;1257;65423;-44
2023/12/03 00:55:12;;;;;;;18.70;12.20;;;;;;;-147.86;100.00;46121.79;105736;1255;72569;-44
2023/12/03 00:57:39;;;;;;;18.60;12.10;;;;;;;-147.86;100.00;46124.54;105665;1257;62163;-44
2023/12/03 01:00:09;;;;;;;20.20;12.20;;;;;;;-147.86;100.00;46124.54;105687;1254;60339;-44
2023/12/03 01:02:36;;;;;;;18.20;11.50;;;;;;;-147.86;100.00;46124.93;105713;1254;73110;-43
2023/12/03 01:05:04;;;;;;;20.20;12.20;;;;;;;-147.86;100.00;46123.75;105660;1258;65655;-43
2023/12/03 01:07:31;;;;;;;22.20;13.10;;;;;;;-147.86;100.00;46124.14;105744;1257;72713;-43
2023/12/03 01:09:57;;;;;;;21.80;12.40;;;;;;;-147.86;100.00;46123.36;105712;1258;61740;-43
2023/12/03 01:12:24;;;;;;;21.10;12.20;;;;;;;-147.86;100.00;46123.36;105725;1253;60188;-43
2023/12/03 01:14:51;;;;;;;20.80;12.70;;;;;;;-147.86;100.00;46126.10;105707;1258;72019;-43
2023/12/03 01:17:18;;;;;;;19.30;11.80;;;;;;;-147.86;100.00;46124.93;105695;1257;65371;-43
2023/12/03 01:19:49;;;;;;;18.90;11.50;;;;;;;-147.86;100.00;46124.54;105734;1253;71537;-43
2023/12/03 01:22:21;;;;;;;21.80;13.30;;;;;;;-147.86;100.00;46122.97;105751;1257;61847;-44
2023/12/03 01:24:51;;;;;;;22.30;13.90;;;;;;;-147.86;100.00;46121.79;105673;1253;60218;-44
2023/12/03 01:27:18;;;;;;;21.30;12.60;;;;;;;-147.86;100.00;46124.54;105712;1257;72910;-43
2023/12/03 01:29:47;;;;;;;24.40;12.40;;;;;;;-147.86;100.00;46122.18;105689;1259;65212;-43
2023/12/03 01:32:14;;;;;;;24.10;14.30;;;;;;;-147.86;100.00;46123.36;105733;1254;72654;-44
2023/12/03 01:34:44;;;;;;;25.90;13.40;;;;;;;-147.86;100.00;46124.14;105696;1254;61850;-44
2023/12/03 01:37:13;;;;;;;25.00;12.90;;;;;;;-147.86;100.00;46123.75;105719;1254;60335;-43
2023/12/03 01:39:40;;;;;;;32.80;13.80;;;;;;;-147.86;100.00;46122.18;105677;1257;74065;-43
2023/12/03 01:42:09;;;;;;;22.00;13.80;;;;;;;-147.86;100.00;46121.40;105727;1254;65328;-43
2023/12/03 01:44:36;;;;;;;23.30;13.20;;;;;;;-147.86;100.00;46122.57;105680;1254;72624;-43
2023/12/03 01:47:03;;;;;;;28.10;13.90;;;;;;;-147.86;100.00;46122.18;105691;1254;61819;-43
2023/12/03 01:49:31;;;;;;;29.60;14.10;;;;;;;-147.86;100.00;46122.57;105711;1253;60183;-43
2023/12/03 01:51:58;;;;;;;24.40;13.60;;;;;;;-147.86;100.00;46122.19;105746;1253;73011;-44
2023/12/03 01:54:27;;;;;;;24.10;14.30;;;;;;;-147.86;100.00;46122.57;105709;1259;65213;-43
2023/12/03 01:56:54;;;;;;;27.90;14.30;;;;;;;-147.86;100.00;46121.40;105690;1257;72618;-43
2023/12/03 01:59:23;;;;;;;27.30;15.30;;;;;;;-147.86;100.00;46120.62;105681;1257;61740;-43
2023/12/03 02:01:49;;;;;;;41.00;16.20;;;;;;;-147.86;100.00;46121.79;105678;1253;60262;-43
2023/12/03 02:04:19;;;;;;;32.80;15.80;;;;;;;-147.86;100.00;46122.57;105666;1257;73022;-43
2023/12/03 02:06:49;;;;;;;36.20;17.30;;;;;;;-147.86;100.00;46121.40;105665;1257;65372;-44
2023/12/03 02:09:16;;;;;;;29.40;15.80;;;;;;;-147.86;100.00;46122.57;105713;1257;72555;-44
2023/12/03 02:11:46;;;;;;;33.10;17.10;;;;;;;-147.86;100.00;46121.79;105692;1257;61952;-44
2023/12/03 02:14:16;;;;;;;42.60;17.00;;;;;;;-147.86;100.00;46121.40;105683;1254;60444;-44
2023/12/03 02:16:45;;;;;;;31.40;16.80;;;;;;;-147.86;100.00;46121.40;105668;1257;72597;-44
2023/12/03 02:19:12;;;;;;;33.80;16.60;;;;;;;-147.86;100.00;46119.83;105692;1257;65473;-44
2023/12/03 02:21:39;;;;;;;34.90;17.20;;;;;;;-147.86;100.00;46121.79;105704;1256;72715;-44
2023/12/03 02:24:06;;;;;;;38.50;17.60;;;;;;;-147.86;100.00;46120.62;105705;1257;63111;-44
2023/12/03 02:26:33;;;;;;;32.80;17.00;;;;;;;-147.86;100.00;46120.22;105724;1254;60505;-44
2023/12/03 02:29:00;;;;;;;39.50;17.80;;;;;;;-147.86;100.00;46121.79;105729;1254;73748;-44
2023/12/03 02:31:29;;;;;;;32.10;18.00;;;;;;;-147.86;100.00;46123.36;105690;1253;65491;-45
2023/12/03 02:34:07;;;;;;;31.30;17.30;;;;;;;-147.86;100.00;46120.23;105752;1254;72481;-44
2023/12/03 02:36:34;;;;;;;34.10;18.00;;;;;;;-147.86;100.00;46123.75;105698;1254;60768;-44
2023/12/03 02:39:03;;;;;;;29.40;17.00;;;;;;;-147.86;100.00;46121.01;105711;1254;60447;-44
2023/12/03 02:41:32;;;;;;;28.00;17.30;;;;;;;-147.86;100.00;46122.18;105729;1254;73666;-44
2023/12/03 02:44:00;;;;;;;27.60;17.30;;;;;;;-147.86;100.00;46118.27;105715;1257;65474;-44
2023/12/03 02:46:29;;;;;;;25.50;16.60;;;;;;;-147.86;100.00;46122.19;105749;1254;72500;-44
2023/12/03 02:48:56;;;;;;;26.30;16.20;;;;;;;-147.86;100.00;46119.84;105606;1257;61870;-44
2023/12/03 02:51:24;;;;;;;26.70;16.70;;;;;;;-147.86;100.00;46121.40;105663;1254;60428;-44
2023/12/03 02:53:53;;;;;;;29.10;16.50;;;;;;;-147.86;100.00;46119.45;105662;1254;73824;-43
2023/12/03 02:56:20;;;;;;;26.70;16.40;;;;;;;-147.86;100.00;46121.40;105654;1254;65460;-44
2023/12/03 02:58:49;;;;;;;23.70;15.80;;;;;;;-147.86;100.00;46121.40;105627;1254;72617;-44
2023/12/03 03:01:19;;;;;;;23.80;15.80;;;;;;;-147.86;100.00;46121.79;105685;1255;61815;-43
2023/12/03 03:03:46;;;;;;;25.30;17.00;;;;;;;-147.86;100.00;46121.01;105614;1254;60487;-42
2023/12/03 03:06:16;;;;;;;22.40;15.70;;;;;;;-147.86;100.00;46122.18;105657;1258;72811;-43
2023/12/03 03:08:43;;;;;;;24.00;16.40;;;;;;;-147.86;100.00;46119.44;105605;1254;65501;-43
2023/12/03 03:11:10;;;;;;;26.60;16.10;;;;;;;-147.86;100.00;46119.44;105692;1254;72694;-43
2023/12/03 03:13:37;;;;;;;24.40;16.00;;;;;;;-147.86;100.00;46119.84;105667;1254;61015;-44
2023/12/03 03:16:16;;;;;;;26.20;16.20;;;;;;;-147.86;100.00;46119.44;105661;1254;60536;-44
2023/12/03 03:18:43;;;;;;;24.90;16.60;;;;;;;-147.86;100.00;46117.87;105667;1257;73725;-44
2023/12/03 03:21:10;;;;;;;25.50;14.90;;;;;;;-147.86;100.00;46119.45;105652;1258;65354;-43
2023/12/03 03:23:37;;;;;;;24.00;16.30;;;;;;;-147.86;100.00;46118.27;105661;1254;72485;-43
2023/12/03 03:26:08;;;;;;;24.30;15.90;;;;;;;-147.86;100.00;46118.26;105661;1254;62011;-44
2023/12/03 03:28:37;;;;;;;23.50;15.70;;;;;;;-147.86;100.00;46118.27;105621;1254;60433;-43
2023/12/03 03:31:05;;;;;;;22.30;15.60;;;;;;;-147.86;100.00;46117.09;105668;1254;73863;-44
2023/12/03 03:33:35;;;;;;;25.50;16.40;;;;;;;-147.86;100.00;46117.09;105690;1257;65460;-43
2023/12/03 03:36:05;;;;;;;24.40;16.60;;;;;;;-147.86;100.00;46116.30;105619;1255;72502;-43
2023/12/03 03:38:34;;;;;;;23.60;15.60;;;;;;;-147.86;100.00;46116.70;105705;1254;61804;-44
2023/12/03 03:41:05;;;;;;;23.60;16.00;;;;;;;-147.86;100.00;46117.48;105668;1257;60406;-43
2023/12/03 03:43:34;;;;;;;27.20;16.70;;;;;;;-147.86;100.00;46117.09;105618;1254;72335;-44
2023/12/03 03:46:01;;;;;;;26.60;15.50;;;;;;;-147.86;100.00;46117.09;105711;1257;65269;-43
2023/12/03 03:48:32;;;;;;;27.30;16.00;;;;;;;-147.86;100.00;46117.09;105675;1254;72772;-43
2023/12/03 03:50:59;;;;;;;23.70;16.10;;;;;;;-147.86;100.00;46115.13;105617;1254;61745;-44
2023/12/03 03:53:27;;;;;;;25.00;16.00;;;;;;;-147.86;100.00;46115.52;105628;1254;60519;-43
2023/12/03 03:55:54;;;;;;;23.90;16.20;;;;;;;-147.86;100.00;46114.74;105677;1254;72509;-43
2023/12/03 03:58:21;;;;;;;28.90;17.40;;;;;;;-147.86;100.00;46115.92;105668;1257;65277;-43
2023/12/03 04:00:48;;;;;;;25.80;17.10;;;;;;;-147.86;100.00;46113.96;105673;1257;72669;-44
2023/12/03 04:03:15;;;;;;;31.50;17.40;;;;;;;-147.86;100.00;46115.52;105634;1255;62009;-44
2023/12/03 04:05:44;;;;;;;34.90;17.80;;;;;;;-147.86;100.00;46116.30;105657;1254;60542;-45
2023/12/03 04:08:12;;;;;;;25.90;15.90;;;;;;;-147.86;100.00;46115.92;105668;1257;73682;-44
2023/12/03 04:10:39;;;;;;;25.80;17.70;;;;;;;-147.86;100.00;46115.52;105670;1257;65382;-44
2023/12/03 04:13:06;;;;;;;29.20;17.50;;;;;;;-147.86;100.00;46117.48;105611;1257;73806;-43
2023/12/03 04:15:33;;;;;;;27.70;17.40;;;;;;;-147.86;100.00;46116.70;105627;1254;61669;-44
2023/12/03 04:18:00;;;;;;;26.00;17.00;;;;;;;-147.86;100.00;46117.09;105644;1254;60498;-44
2023/12/03 04:20:28;;;;;;;30.70;17.20;;;;;;;-147.86;100.00;46117.48;105607;1258;73778;-44
2023/12/03 04:22:54;;;;;;;23.60;16.60;;;;;;;-147.86;100.00;46116.70;105637;1253;65549;-45
2023/12/03 04:25:22;;;;;;;30.30;19.20;;;;;;;-147.86;100.00;46115.91;105610;1254;72543;-44
2023/12/03 04:27:49;;;;;;;28.10;17.40;;;;;;;-147.86;100.00;46116.30;105647;1258;60559;-44
2023/12/03 04:30:16;;;;;;;36.90;18.50;;;;;;;-147.86;100.00;46114.74;105649;1254;60429;-44
2023/12/03 04:32:43;;;;;;;29.70;18.00;;;;;;;-147.86;100.00;46116.30;105671;1257;73864;-44
2023/12/03 04:35:10;;;;;;;26.70;17.10;;;;;;;-147.86;100.00;46113.17;105652;1257;65556;-44
2023/12/03 04:37:37;;;;;;;26.80;17.60;;;;;;;-147.86;100.00;46117.48;105675;1254;70636;-44
2023/12/03 04:40:15;;;;;;;;;;;;;;;;;;;;;
2023/12/03 04:42:43;;;;;;;25.90;16.60;;;;;;;-147.86;100.00;46113.96;105643;1254;62048;-44
2023/12/03 04:45:09;;;;;;;27.80;17.20;;;;;;;-147.86;100.00;46115.13;105615;1259;73886;-44
2023/12/03 04:47:40;;;;;;;28.80;16.20;;;;;;;-147.86;100.00;46116.30;105633;1254;64300;-43
2023/12/03 04:50:07;;;;;;;27.80;16.70;;;;;;;-147.86;100.00;46114.74;105586;1254;72656;-44
2023/12/03 04:52:44;;;;;;;30.10;18.50;;;;;;;-147.86;100.00;46115.91;105616;1256;61795;-43
2023/12/03 04:55:12;;;;;;;31.50;17.90;;;;;;;-147.86;100.00;46114.35;105644;1254;60553;-44
2023/12/03 04:57:39;;;;;;;26.20;17.00;;;;;;;-147.86;100.00;46115.52;105639;1257;73659;-43
2023/12/03 05:00:07;;;;;;;25.50;16.10;;;;;;;-147.86;100.00;46113.96;105655;1257;64500;-44
2023/12/03 05:02:34;;;;;;;26.10;16.80;;;;;;;-147.86;100.00;46114.74;105672;1256;71199;-43
2023/12/03 05:05:01;;;;;;;27.90;16.80;;;;;;;-147.86;100.00;46115.52;105660;1254;62320;-43
2023/12/03 05:07:28;;;;;;;25.50;16.80;;;;;;;-147.86;100.00;46115.92;105696;1254;60451;-43
2023/12/03 05:09:55;;;;;;;25.00;15.90;;;;;;;-147.86;100.00;46115.52;105653;1254;73882;-44
2023/12/03 05:12:22;;;;;;;25.90;16.70;;;;;;;-147.86;100.00;46113.17;105648;1257;65434;-44
2023/12/03 05:14:49;;;;;;;25.30;16.30;;;;;;;-147.86;100.00;46115.52;105649;1254;72643;-45
2023/12/03 05:17:16;;;;;;;27.40;15.60;;;;;;;-147.86;100.00;46116.30;105675;1254;61926;-44
2023/12/03 05:19:43;;;;;;;24.50;16.70;;;;;;;-147.86;100.00;46114.74;105631;1254;60451;-43
2023/12/03 05:22:10;;;;;;;24.60;15.80;;;;;;;-147.86;100.00;46117.09;105646;1254;73816;-43
2023/12/03 05:24:37;;;;;;;19.70;13.00;;;;;;;-147.86;100.00;46114.74;105673;1254;65377;-44
2023/12/03 05:27:04;;;;;;;20.20;12.80;;;;;;;-147.86;100.00;46114.74;105632;1254;72811;-43
2023/12/03 05:29:32;;;;;;;16.70;11.50;;;;;;;-147.86;100.00;46114.74;105657;1254;61833;-43
2023/12/03 05:31:59;;;;;;;21.90;14.80;;;;;;;-147.86;100.00;46114.35;105649;1254;60448;-44
2023/12/03 05:34:25;;;;;;;21.70;14.30;;;;;;;-147.86;100.00;46115.91;105693;1254;73720;-44
2023/12/03 05:36:53;;;;;;;16.10;11.40;;;;;;;-147.86;100.00;46115.52;105693;1257;65864;-45
2023/12/03 05:39:21;;;;;;;20.90;11.80;;;;;;;-147.86;100.00;46114.34;105623;1256;72590;-45
2023/12/03 05:41:48;;;;;;;15.30;10.00;;;;;;;-147.86;100.00;46116.30;105298;1257;61826;-44
2023/12/03 05:44:15;;;;;;;15.60;10.90;;;;;;;-147.86;100.00;46117.48;105466;1254;60445;-43
2023/12/03 05:46:42;;;;;;;13.20;8.90;;;;;;;-147.86;100.00;46115.52;105618;1254;73747;-45
2023/12/03 05:49:09;;;;;;;11.80;8.20;;;;;;;-147.86;100.00;46115.13;105635;1257;65426;-44
2023/12/03 05:51:36;;;;;;;10.20;8.20;;;;;;;-147.86;100.00;46115.91;105670;1254;72607;-45
2023/12/03 05:54:03;;;;;;;10.10;8.20;;;;;;;-147.86;100.00;46114.74;105648;1257;60916;-45
2023/12/03 05:56:30;;;;;;;9.60;8.10;;;;;;;-147.86;100.00;46115.91;105656;1254;60844;-47
2023/12/03 05:58:57;;;;;;;16.40;9.70;;;;;;;-147.86;100.00;46112.78;105725;1256;73850;-46
2023/12/03 06:01:24;;;;;;;16.10;9.90;;;;;;;-147.86;100.00;46115.13;105621;1254;65834;-48
2023/12/03 06:03:52;;;;;;;11.50;8.90;;;;;;;-147.86;100.00;46113.56;105698;1253;71625;-45
2023/12/03 06:06:19;;;;;;;14.70;9.30;;;;;;;-147.86;100.00;46113.56;105750;1257;61846;-45
2023/12/03 06:08:46;;;;;;;13.40;9.90;;;;;;;-147.86;100.00;46111.21;105757;1253;60594;-47
2023/12/03 06:11:13;;;;;;;11.50;8.30;;;;;;;-147.86;100.00;46111.21;105658;1257;73784;-44
2023/12/03 06:13:40;;;;;;;12.30;7.80;;;;;;;-147.86;100.00;46110.04;105671;1253;65490;-44
2023/12/03 06:16:08;;;;;;;10.50;7.50;;;;;;;-147.86;100.00;46111.99;105712;1253;72503;-44
2023/12/03 06:18:35;;;;;;;17.40;8.10;;;;;;;-147.86;100.00;46110.04;105738;1253;62200;-45
2023/12/03 06:21:03;;;;;;;11.30;8.30;;;;;;;-147.86;100.00;46111.21;105721;1253;60559;-44
2023/12/03 06:23:30;;;;;;;10.80;8.50;;;;;;;-147.86;100.00;46111.99;105695;1257;73698;-44
2023/12/03 06:25:57;;;;;;;11.70;7.80;;;;;;;-147.86;100.00;46109.64;105705;1253;65656;-46
2023/12/03 06:28:24;;;;;;;9.70;7.10;;;;;;;-147.86;100.00;46108.86;105709;1254;72635;-44
2023/12/03 06:30:51;;;;;;;11.00;7.20;;;;;;;-147.86;100.00;46109.25;105742;1253;61920;-47
2023/12/03 06:33:19;;;;;;;9.40;7.70;;;;;;;-147.86;100.00;46108.46;105697;1253;60454;-45
2023/12/03 06:35:50;;;;;;;13.80;8.70;;;;;;;-147.86;100.00;46107.68;105712;1253;71968;-48
2023/12/03 06:38:18;;;;;;;13.20;8.30;;;;;;;-147.86;100.00;46108.07;105733;1253;64129;-46
2023/12/03 06:40:45;;;;;;;11.40;7.10;;;;;;;-147.86;100.00;46108.07;105721;1256;71520;-45
2023/12/03 06:43:13;;;;;;;12.60;7.00;;;;;;;-147.86;100.00;46108.07;105719;1253;61819;-44
2023/12/03 06:45:40;;;;;;;5.90;5.30;;;;;;;-147.86;100.00;46106.12;105750;1253;60786;-44
2023/12/03 06:48:07;;;;;;;7.80;5.80;;;;;;;-147.86;100.00;46107.29;105677;1254;73790;-44
2023/12/03 06:50:35;;;;;;;10.30;5.70;;;;;;;-147.86;100.00;46108.07;105707;1253;65568;-44
2023/12/03 06:53:02;;;;;;;8.30;5.20;;;;;;;-147.86;100.00;46106.51;105686;1253;71497;-44
2023/12/03 06:55:29;;;;;;;5.80;5.20;;;;;;;-147.86;100.00;46104.16;105709;1257;61895;-45
2023/12/03 06:57:58;;;;;;;6.30;5.20;;;;;;;-147.86;100.00;46107.68;105735;1254;60411;-44
2023/12/03 07:00:25;;;;;;;7.10;5.60;;;;;;;-147.86;100.00;46108.46;105730;1254;73925;-44
2023/12/03 07:02:53;;;;;;;5.80;5.10;;;;;;;-147.86;100.00;46107.68;105746;1253;65553;-44
2023/12/03 07:05:20;;;;;;;6.50;4.70;;;;;;;-147.86;100.00;46106.12;105716;1253;72598;-44
2023/12/03 07:07:51;;;;;;;7.20;4.50;;;;;;;-147.86;100.00;46108.47;105675;1253;61944;-44
2023/12/03 07:10:18;;;;;;;7.60;4.80;;;;;;;-147.86;100.00;46108.07;105739;1253;60486;-45
2023/12/03 07:12:45;;;;;;;4.40;3.90;;;;;;;-147.86;100.00;46108.46;105699;1256;73821;-44
2023/12/03 07:15:12;;;;;;;5.10;4.10;;;;;;;-147.86;100.00;46108.07;105670;1257;65375;-44
2023/12/03 07:17:39;;;;;;;6.50;4.20;;;;;;;-147.86;100.00;46107.69;105705;1253;72595;-44
2023/12/03 07:20:07;;;;;;;4.10;3.80;;;;;;;-147.86;100.00;46108.07;105717;1253;61677;-44
2023/12/03 07:22:34;;;;;;;6.40;3.40;;;;;;;-147.86;100.00;46107.68;105716;1253;60558;-44
2023/12/03 07:25:02;;;;;;;4.30;3.90;;;;;;;-147.86;100.00;46110.04;105671;1257;73777;-44
2023/12/03 07:27:29;;;;;;;6.00;4.20;;;;;;;-147.86;100.00;46110.43;105755;1253;65538;-44
2023/12/03 07:29:57;;;;;;;4.20;3.80;;;;;;;-147.86;100.00;46108.86;105710;1257;72479;-44
2023/12/03 07:32:24;;;;;;;4.60;4.10;;;;;;;-147.86;100.00;46106.51;105708;1257;61921;-44
2023/12/03 07:34:51;;;;;;;4.00;3.60;;;;;;;-147.86;100.00;46109.25;105749;1253;60448;-44
2023/12/03 07:37:18;;;;;;;8.00;3.70;;;;;;;-147.86;100.00;46108.86;105694;1255;73794;-44
2023/12/03 07:39:45;;;;;;;6.30;3.60;;;;;;;-147.86;100.00;46111.21;105733;1257;65313;-44
2023/12/03 07:42:12;;;;;;;4.90;3.70;;;;;;;-147.86;100.00;46111.99;105685;1253;72425;-45
2023/12/03 07:44:38;;;;;;;3.70;3.40;;;;;;;-147.86;100.00;46109.64;105703;1253;62038;-44
2023/12/03 07:47:05;;;;;;;3.70;3.30;;;;;;;-147.86;100.00;46110.43;105693;1253;61031;-44
2023/12/03 07:49:32;;;;;;;3.80;3.40;;;;;;;-147.86;100.00;46112.78;105718;1257;73662;-44
2023/12/03 07:51:59;;;;;;;8.00;4.20;;;;;;;-147.86;100.00;46113.56;105699;1257;66294;-44
2023/12/03 07:54:27;;;;;;;5.60;4.10;;;;;;;-147.86;100.00;46113.18;105783;1253;72587;-44
2023/12/03 07:56:54;;;;;;;6.60;3.60;;;;;;;-147.86;100.00;46113.96;105716;1257;61963;-43
2023/12/03 07:59:20;;;;;;;3.90;3.60;;;;;;;-147.86;100.00;46115.92;105699;1253;60453;-44
2023/12/03 08:01:48;;;;;;;4.40;3.50;;;;;;;-147.86;100.00;46117.87;105702;1253;73613;-43
2023/12/03 08:04:15;;;;;;;3.90;3.60;;;;;;;-147.86;100.00;46119.05;105688;1257;65686;-44
2023/12/03 08:06:42;;;;;;;3.50;3.20;;;;;;;-147.86;100.00;46123.75;105682;1253;72680;-45
2023/12/03 08:09:10;;;;;;;3.50;3.10;;;;;;;-147.86;100.00;46122.97;105710;1253;61939;-45
2023/12/03 08:11:37;;;;;;;2.90;2.70;;;;;;;-147.86;100.00;46124.93;105741;1257;60340;-43
2023/12/03 08:14:04;;;;;;;4.00;3.20;;;;;;;-147.86;100.00;46125.71;105689;1257;73775;-43
2023/12/03 08:16:31;;;;;;;3.60;3.10;;;;;;;-147.86;100.00;46132.38;105709;1253;65477;-44
2023/12/03 08:18:58;;;;;;;3.30;3.00;;;;;;;-147.86;100.00;46135.90;105732;1253;72461;-44
2023/12/03 08:21:26;;;;;;;4.50;3.40;;;;;;;-147.86;100.00;46143.35;105741;1253;61799;-44
2023/12/03 08:23:53;;;;;;;3.30;3.00;;;;;;;-147.86;100.00;46154.32;105683;1253;60483;-44
2023/12/03 08:26:20;;;;;;;6.00;3.30;;;;;;;-147.86;100.00;46155.49;105705;1257;73862;-44
2023/12/03 08:28:47;;;;;;;5.40;3.60;;;;;;;-147.86;100.00;46166.07;105693;1256;64254;-44
2023/12/03 08:31:14;;;;;;;4.60;3.40;;;;;;;-147.86;100.00;46175.09;105729;1253;72662;-44
2023/12/03 08:33:44;;;;;;;3.50;3.30;;;;;;;-147.86;100.00;46185.67;105699;1253;60583;-44
2023/12/03 08:36:16;;;;;;;4.10;3.70;;;;;;;-147.86;100.00;46197.42;105736;1253;60451;-44
2023/12/03 08:38:44;;;;;;;3.90;3.50;;;;;;;-147.86;100.00;46209.57;105731;1256;73801;-44
2023/12/03 08:41:11;;;;;;;3.80;3.50;;;;;;;-147.86;100.00;46218.58;105726;1253;65585;-44
2023/12/03 08:43:38;;;;;;;5.40;3.50;;;;;;;-147.86;100.00;46231.13;105735;1253;72637;-44
2023/12/03 08:46:06;;;;;;;7.20;3.60;;;;;;;-147.86;100.00;46242.88;105758;1253;61963;-43
2023/12/03 08:48:33;;;;;;;3.40;3.10;;;;;;;-147.86;100.00;46256.99;105695;1253;60846;-43
2023/12/03 08:51:00;;;;;;;3.40;3.00;;;;;;;-147.86;100.00;46270.31;105746;1257;73769;-44
2023/12/03 08:53:27;;;;;;;3.10;2.90;;;;;;;-147.86;100.00;46281.68;105726;1257;64502;-44
2023/12/03 08:55:58;;;;;;;6.10;3.20;;;;;;;-147.86;100.00;46293.44;105696;1254;72479;-44
2023/12/03 08:58:26;;;;;;;5.90;3.10;;;;;;;-147.86;100.00;46304.80;105759;1253;60838;-44
2023/12/03 09:00:53;;;;;;;3.90;3.30;;;;;;;-147.86;100.00;46309.11;105705;1253;60434;-44
2023/12/03 09:03:20;;;;;;;4.30;3.00;;;;;;;-147.86;100.00;46310.68;105700;1254;73607;-44
2023/12/03 09:05:48;;;;;;;5.30;3.60;;;;;;;-147.86;100.00;46309.11;105770;1256;65170;-44
2023/12/03 09:08:15;;;;;;;3.00;2.80;;;;;;;-147.86;100.00;46300.88;105775;1257;72613;-44
2023/12/03 09:10:42;;;;;;;4.10;3.60;;;;;;;-147.86;100.00;46288.34;105766;1257;60453;-43
2023/12/03 09:13:09;;;;;;;3.80;3.50;;;;;;;-147.86;100.00;46273.45;105753;1253;60480;-43
2023/12/03 09:15:36;;;;;;;6.10;3.60;;;;;;;-147.86;100.00;46260.91;105771;1253;74258;-45
2023/12/03 09:18:03;;;;;;;3.40;3.00;;;;;;;-147.86;100.00;46251.50;105775;1253;65424;-44
2023/12/03 09:20:30;;;;;;;3.30;3.00;;;;;;;-147.86;100.00;46247.19;105812;1253;72648;-44
2023/12/03 09:22:57;;;;;;;3.30;3.00;;;;;;;-147.86;100.00;46240.14;105749;1257;60382;-43
2023/12/03 09:25:24;;;;;;;4.30;3.30;;;;;;;-147.86;100.00;46209.96;105765;1253;60451;-44
2023/12/03 09:27:51;;;;;;;4.30;3.50;;;;;;;-147.86;100.00;46185.67;105776;1257;72885;-44
2023/12/03 09:30:18;;;;;;;3.40;3.10;;;;;;;-147.86;100.00;46171.55;105772;1253;65371;-44
2023/12/03 09:32:46;;;;;;;3.00;2.80;;;;;;;-147.86;100.00;46163.72;105785;1253;72623;-44
2023/12/03 09:35:13;;;;;;;3.30;2.70;;;;;;;-147.86;100.00;46159.80;105775;1257;60852;-43
2023/12/03 09:37:39;;;;;;;3.40;3.20;;;;;;;-147.86;100.00;46158.23;105811;1253;60502;-43
2023/12/03 09:40:07;;;;;;;4.50;3.10;;;;;;;-147.86;100.00;46149.23;105806;1254;72845;-44
2023/12/03 09:42:36;;;;;;;2.70;2.50;;;;;;;-147.86;100.00;46133.94;105780;1253;65468;-45
2023/12/03 09:45:04;;;;;;;2.80;2.60;;;;;;;-147.86;100.00;46094.36;105738;1254;71186;-43
2023/12/03 09:47:37;;;;;;;2.70;2.50;;;;;;;-147.86;100.00;46056.35;105762;1255;60454;-43
2023/12/03 09:50:06;;;;;;;4.80;2.60;;;;;;;-147.86;100.00;46040.29;105782;1253;60423;-43
2023/12/03 09:52:35;;;;;;;2.70;2.50;;;;;;;-147.86;100.00;46021.87;105804;1253;72533;-44
2023/12/03 09:55:02;;;;;;;3.20;3.00;;;;;;;-147.86;100.00;46016.38;105765;1257;65430;-43
2023/12/03 09:57:30;;;;;;;3.60;3.30;;;;;;;-147.86;100.00;46017.55;105751;1253;72585;-43
2023/12/03 09:59:57;;;;;;;2.70;2.50;;;;;;;-147.86;100.00;46014.03;105669;1258;61969;-43
2023/12/03 10:02:28;;;;;;;2.70;2.30;;;;;;;-147.86;100.00;46019.12;105768;1253;60477;-43
2023/12/03 10:04:56;;;;;;;2.80;2.70;;;;;;;-147.86;100.00;46024.21;105746;1253;73808;-43
2023/12/03 10:07:27;;;;;;;2.80;2.60;;;;;;;-147.86;100.00;46039.89;105755;1257;66794;-43
2023/12/03 10:09:56;;;;;;;2.40;2.30;;;;;;;-147.86;100.00;46051.65;105752;1258;72641;-43
2023/12/03 10:12:24;;;;;;;3.00;2.80;;;;;;;-147.86;100.00;46056.75;105551;1257;403066;-43
2023/12/03 10:17:04;;;;;;;3.40;3.10;;;;;;;-147.86;100.00;46053.61;102570;1293;602457;-43
2023/12/03 10:19:31;;;;;;;3.20;2.80;;;;;;;-147.86;100.00;46050.47;105180;1266;60845;-43
2023/12/03 10:21:58;;;;;;;3.90;3.60;;;;;;;-147.86;100.00;46042.24;105213;1266;60408;-43
2023/12/03 10:24:25;;;;;;;3.40;3.10;;;;;;;-147.86;100.00;46028.91;105243;1263;71180;-43
2023/12/03 10:26:55;;;;;;;3.70;3.40;;;;;;;-147.86;100.00;46018.73;105265;1266;65423;-43
2023/12/03 10:29:26;;;;;;;3.90;3.50;;;;;;;-147.86;100.00;46004.23;105022;1261;295059;-43
2023/12/03 10:31:53;;;;;;;4.20;3.90;;;;;;;-147.86;100.00;45997.18;105289;1266;62056;-44
2023/12/03 10:34:21;;;;;;;4.60;4.00;;;;;;;-147.86;100.00;45989.34;105272;1264;59551;-43
2023/12/03 10:36:49;;;;;;;4.20;3.80;;;;;;;-147.86;100.00;45993.26;105380;1262;72230;-43
2023/12/03 10:39:19;;;;;;;4.50;4.20;;;;;;;-147.86;100.00;45999.92;105220;1266;65463;-44
2023/12/03 10:41:47;;;;;;;4.50;3.90;;;;;;;-147.86;100.00;46001.88;105201;1264;72258;-44
2023/12/03 10:44:28;;;;;;;5.10;4.20;;;;;;;-147.86;100.00;45997.96;105232;1262;61089;-43
2023/12/03 10:46:58;;;;;;;4.40;4.00;;;;;;;-147.86;100.00;46001.88;105293;1264;60453;-44
2023/12/03 10:49:25;;;;;;;5.10;4.10;;;;;;;-147.86;100.00;46002.27;105222;1266;72139;-43
2023/12/03 10:51:54;;;;;;;7.80;3.90;;;;;;;-147.86;100.00;45997.57;105243;1264;64160;-44
2023/12/03 10:54:21;;;;;;;4.80;4.00;;;;;;;-147.86;100.00;45992.48;105260;1263;72573;-44
2023/12/03 10:56:51;;;;;;;7.20;5.10;;;;;;;-147.86;100.00;45990.52;105230;1266;61934;-45
2023/12/03 10:59:21;;;;;;;5.70;4.70;;;;;;;-147.86;100.00;45987.77;105280;1260;60192;-44